createdAt,value
2023-03-29T01:05:52.733Z,50.875648
2023-03-29T01:06:52.725Z,50.875561
2023-03-29T01:07:52.721Z,50.875595
2023-03-29T01:08:52.686Z,50.875595
2023-03-29T01:09:52.668Z,50.875595
2023-03-29T01:10:52.666Z,50.875595
2023-03-29T01:11:52.650Z,50.875595
2023-03-29T01:12:52.684Z,50.875595
2023-03-29T01:13:52.629Z,50.875595
2023-03-29T01:14:52.619Z,50.875595
2023-03-29T01:15:52.613Z,50.875595
2023-03-29T01:16:52.652Z,50.875595
2023-03-29T01:17:52.658Z,50.875595
2023-03-29T01:18:52.585Z,50.875595
2023-03-29T01:19:52.573Z,50.875595
2023-03-29T01:20:52.577Z,50.875965
2023-03-29T01:21:52.564Z,50.875874
2023-03-29T01:22:52.583Z,50.876152
2023-03-29T01:23:52.550Z,50.876068
2023-03-29T01:24:52.575Z,50.875656
2023-03-29T01:25:52.519Z,50.875610
2023-03-29T01:26:52.505Z,50.875259
2023-03-29T01:27:52.515Z,50.875450
2023-03-29T01:28:52.489Z,50.875462
2023-03-29T01:29:52.477Z,50.875534
2023-03-29T01:30:52.479Z,50.875786
2023-03-29T01:31:52.511Z,50.875786
2023-03-29T01:32:52.510Z,50.875980
2023-03-29T01:33:52.446Z,50.875904
2023-03-29T01:34:52.420Z,50.875778
2023-03-29T01:35:52.483Z,50.875690
2023-03-29T01:36:52.416Z,50.875538
2023-03-29T01:37:52.409Z,50.875374
2023-03-29T01:38:52.391Z,50.875534
2023-03-29T01:39:52.414Z,50.875439
2023-03-29T01:40:52.394Z,50.875439
2023-03-29T01:41:52.376Z,50.876083
2023-03-29T01:42:52.348Z,50.875870
2023-03-29T01:43:52.342Z,50.876064
2023-03-29T01:44:52.322Z,50.875912
2023-03-29T01:45:52.336Z,50.875790
2023-03-29T01:46:52.307Z,50.875816
2023-03-29T01:47:52.305Z,50.875603
2023-03-29T01:48:52.301Z,50.875626
2023-03-29T01:49:52.278Z,50.875786
2023-03-29T01:50:52.261Z,50.875954
2023-03-29T01:51:52.298Z,50.876087
2023-03-29T01:52:52.245Z,50.875607
2023-03-29T01:53:52.247Z,50.875519
2023-03-29T01:54:52.214Z,50.875286
2023-03-29T01:55:52.206Z,50.875629
2023-03-29T01:56:52.237Z,50.876106
2023-03-29T01:57:52.190Z,50.875820
2023-03-29T01:58:52.193Z,50.875675
2023-03-29T01:59:52.165Z,50.875328
2023-03-29T02:00:52.159Z,50.875484
2023-03-29T02:01:52.244Z,50.875301
2023-03-29T02:02:52.241Z,50.875511
2023-03-29T02:03:52.136Z,50.875721
2023-03-29T02:04:52.117Z,50.876823
2023-03-29T02:05:52.108Z,50.876823
2023-03-29T02:06:52.102Z,50.876823
2023-03-29T02:07:52.086Z,50.876823
2023-03-29T02:08:52.097Z,50.876823
2023-03-29T02:09:52.076Z,50.876823
2023-03-29T02:10:52.053Z,50.876823
2023-03-29T02:11:52.053Z,50.876823
2023-03-29T02:12:52.050Z,50.876823
2023-03-29T02:13:52.041Z,50.876823
2023-03-29T02:14:52.022Z,50.876823
2023-03-29T02:15:52.047Z,50.874817
2023-03-29T02:16:51.991Z,50.874828
2023-03-29T02:17:52.003Z,50.874969
2023-03-29T02:18:51.989Z,50.874981
2023-03-29T02:19:51.976Z,50.875008
2023-03-29T02:20:51.950Z,50.875031
2023-03-29T02:21:51.946Z,50.874546
2023-03-29T02:22:51.949Z,50.874859
2023-03-29T02:23:51.935Z,50.874508
2023-03-29T02:24:51.918Z,50.874508
2023-03-29T02:25:51.907Z,50.874508
2023-03-29T02:26:51.893Z,50.874508
2023-03-29T02:27:51.902Z,50.874508
2023-03-29T02:28:51.895Z,50.874508
2023-03-29T02:29:51.861Z,50.874508
2023-03-29T02:30:51.880Z,50.874508
2023-03-29T02:31:51.860Z,50.874508
2023-03-29T02:32:51.867Z,50.874508
2023-03-29T02:33:51.842Z,50.874508
2023-03-29T02:34:51.816Z,50.874508
2023-03-29T02:35:51.827Z,50.874508
2023-03-29T02:36:51.796Z,50.874508
2023-03-29T02:37:51.800Z,50.874508
2023-03-29T02:38:51.788Z,50.874508
2023-03-29T02:39:51.758Z,50.874508
2023-03-29T02:40:51.753Z,50.874508
2023-03-29T02:41:51.742Z,50.874508
2023-03-29T02:42:51.722Z,50.874508
2023-03-29T02:43:51.731Z,50.874508
2023-03-29T02:44:51.714Z,50.874508
2023-03-29T02:45:51.711Z,50.874508
2023-03-29T02:46:51.716Z,50.874508
2023-03-29T02:47:51.793Z,50.874508
2023-03-29T02:48:51.678Z,50.874508
2023-03-29T02:49:51.659Z,50.874508
2023-03-29T02:50:51.660Z,50.874508
2023-03-29T02:51:51.652Z,50.874508
2023-03-29T02:52:51.633Z,50.874508
2023-03-29T02:53:51.639Z,50.874508
2023-03-29T02:54:51.608Z,50.874508
2023-03-29T02:55:51.600Z,50.874508
2023-03-29T02:56:51.608Z,50.874508
2023-03-29T02:57:51.585Z,50.874508
2023-03-29T02:58:51.595Z,50.874508
2023-03-29T02:59:51.557Z,50.874508
2023-03-29T03:00:51.558Z,50.874508
2023-03-29T03:01:51.583Z,50.874508
2023-03-29T03:02:51.587Z,50.874508
2023-03-29T03:03:51.589Z,50.874508
2023-03-29T03:04:51.520Z,50.874508
2023-03-29T03:05:51.502Z,50.874508
2023-03-29T03:06:51.486Z,50.874508
2023-03-29T03:07:51.487Z,50.874508
2023-03-29T03:08:51.476Z,50.874508
2023-03-29T03:09:51.482Z,50.874508
2023-03-29T03:10:51.449Z,50.874508
2023-03-29T03:11:51.442Z,50.874508
2023-03-29T03:12:51.443Z,50.874508
2023-03-29T03:13:51.424Z,50.874508
2023-03-29T03:14:51.426Z,50.874508
2023-03-29T03:15:51.455Z,50.874508
2023-03-29T03:16:51.392Z,50.874508
2023-03-29T03:17:51.396Z,50.874508
2023-03-29T03:18:51.387Z,50.874508
2023-03-29T03:19:51.373Z,50.874508
2023-03-29T03:20:51.352Z,50.874508
2023-03-29T03:21:51.344Z,50.874508
2023-03-29T03:22:51.333Z,50.874508
2023-03-29T03:23:51.314Z,50.874508
2023-03-29T03:24:51.324Z,50.874508
2023-03-29T03:25:51.305Z,50.874508
2023-03-29T03:26:51.287Z,50.874508
2023-03-29T03:27:51.277Z,50.875561
2023-03-29T03:28:51.272Z,50.875389
2023-03-29T03:29:51.265Z,50.875237
2023-03-29T03:30:51.258Z,50.875362
2023-03-29T03:31:53.808Z,50.875195
2023-03-29T03:32:51.281Z,50.875320
2023-03-29T03:33:51.225Z,50.875286
2023-03-29T03:34:51.217Z,50.875370
2023-03-29T03:35:51.221Z,50.875324
2023-03-29T03:36:51.187Z,50.875271
2023-03-29T03:37:51.189Z,50.875217
2023-03-29T03:38:51.165Z,50.875473
2023-03-29T03:39:51.163Z,50.875355
2023-03-29T03:40:51.160Z,50.875099
2023-03-29T03:41:51.134Z,50.875252
2023-03-29T03:42:51.131Z,50.875114
2023-03-29T03:43:51.116Z,50.875160
2023-03-29T03:44:51.125Z,50.875298
2023-03-29T03:45:51.179Z,50.875168
2023-03-29T03:46:51.093Z,50.875198
2023-03-29T03:47:51.087Z,50.875435
2023-03-29T03:48:51.073Z,50.875458
2023-03-29T03:49:51.076Z,50.875233
2023-03-29T03:50:51.052Z,50.875305
2023-03-29T03:51:52.257Z,50.875290
2023-03-29T03:52:52.035Z,50.875313
2023-03-29T03:53:51.022Z,50.875309
2023-03-29T03:54:51.014Z,50.875366
2023-03-29T03:55:50.992Z,50.875450
2023-03-29T03:56:51.102Z,50.875401
2023-03-29T03:57:50.973Z,50.875374
2023-03-29T03:58:50.970Z,50.875317
2023-03-29T03:59:50.971Z,50.875256
2023-03-29T04:00:50.957Z,50.875534
2023-03-29T04:01:50.936Z,50.875568
2023-03-29T04:02:51.013Z,50.875183
2023-03-29T04:03:50.985Z,50.875080
2023-03-29T04:04:50.920Z,50.875248
2023-03-29T04:05:50.890Z,50.875389
2023-03-29T04:06:50.903Z,50.875858
2023-03-29T04:07:50.879Z,50.875469
2023-03-29T04:08:50.877Z,50.875404
2023-03-29T04:09:50.867Z,50.875401
2023-03-29T04:10:50.841Z,50.875206
2023-03-29T04:11:50.834Z,50.875275
2023-03-29T04:12:50.817Z,50.875317
2023-03-29T04:13:50.814Z,50.875282
2023-03-29T04:14:50.815Z,50.875328
2023-03-29T04:15:50.835Z,50.875317
2023-03-29T04:16:50.784Z,50.875362
2023-03-29T04:17:50.885Z,50.875107
2023-03-29T04:18:50.838Z,50.875130
2023-03-29T04:19:50.762Z,50.874599
2023-03-29T04:20:50.752Z,50.874451
2023-03-29T04:21:50.732Z,50.875633
2023-03-29T04:22:50.725Z,50.875740
2023-03-29T04:23:50.715Z,50.875412
2023-03-29T04:24:50.717Z,50.875454
2023-03-29T04:25:50.710Z,50.875488
2023-03-29T04:26:50.682Z,50.875343
2023-03-29T04:27:50.676Z,50.875378
2023-03-29T04:28:50.665Z,50.875347
2023-03-29T04:29:50.674Z,50.875362
2023-03-29T04:30:50.651Z,50.875412
2023-03-29T04:31:51.659Z,50.875347
2023-03-29T04:32:50.663Z,50.875381
2023-03-29T04:33:50.611Z,50.875496
2023-03-29T04:34:50.620Z,50.875481
2023-03-29T04:35:50.701Z,50.875408
2023-03-29T04:36:50.592Z,50.875336
2023-03-29T04:37:50.585Z,50.875336
2023-03-29T04:38:50.576Z,50.875320
2023-03-29T04:39:50.579Z,50.875298
2023-03-29T04:40:50.548Z,50.875317
2023-03-29T04:41:50.541Z,50.875370
2023-03-29T04:42:50.525Z,50.875195
2023-03-29T04:43:50.526Z,50.875088
2023-03-29T04:44:50.573Z,50.875515
2023-03-29T04:45:50.506Z,50.875278
2023-03-29T04:46:50.530Z,50.875305
2023-03-29T04:47:50.495Z,50.875401
2023-03-29T04:48:50.480Z,50.875393
2023-03-29T04:49:50.453Z,50.875401
2023-03-29T04:50:50.458Z,50.875584
2023-03-29T04:51:50.435Z,50.875526
2023-03-29T04:52:50.443Z,50.875584
2023-03-29T04:53:50.460Z,50.875423
2023-03-29T04:54:50.406Z,50.875408
2023-03-29T04:55:50.410Z,50.875389
2023-03-29T04:56:50.401Z,50.875420
2023-03-29T04:57:50.381Z,50.875275
2023-03-29T04:58:50.371Z,50.875366
2023-03-29T04:59:50.363Z,50.875423
2023-03-29T05:00:50.365Z,50.875534
2023-03-29T05:01:50.377Z,50.875431
2023-03-29T05:02:50.351Z,50.875446
2023-03-29T05:03:50.366Z,50.875263
2023-03-29T05:04:50.319Z,50.875298
2023-03-29T05:05:50.318Z,50.875587
2023-03-29T05:06:50.295Z,50.874973
2023-03-29T05:07:50.281Z,50.875233
2023-03-29T05:08:50.284Z,50.875488
2023-03-29T05:09:50.261Z,50.875381
2023-03-29T05:10:50.246Z,50.875328
2023-03-29T05:11:50.225Z,50.875576
2023-03-29T05:12:50.218Z,50.875576
2023-03-29T05:13:50.215Z,50.875576
2023-03-29T05:14:50.199Z,50.875576
2023-03-29T05:15:50.250Z,50.875576
2023-03-29T05:16:50.198Z,50.875576
2023-03-29T05:17:50.202Z,50.875576
2023-03-29T05:18:50.182Z,50.875576
2023-03-29T05:19:50.156Z,50.875576
2023-03-29T05:20:50.180Z,50.875576
2023-03-29T05:21:50.159Z,50.875576
2023-03-29T05:22:50.122Z,50.875576
2023-03-29T05:23:50.145Z,50.875576
2023-03-29T05:24:50.109Z,50.875576
2023-03-29T05:25:50.131Z,50.875576
2023-03-29T05:26:50.099Z,50.875576
2023-03-29T05:27:50.095Z,50.875576
2023-03-29T05:28:50.093Z,50.875576
2023-03-29T05:29:50.071Z,50.875576
2023-03-29T05:30:50.056Z,50.875576
2023-03-29T05:31:50.157Z,50.875576
2023-03-29T05:32:50.083Z,50.875576
2023-03-29T05:33:50.057Z,50.875576
2023-03-29T05:34:50.066Z,50.875576
2023-03-29T05:35:50.048Z,50.875576
2023-03-29T05:36:50.015Z,50.875576
2023-03-29T05:37:50.025Z,50.875576
2023-03-29T05:38:50.063Z,50.875576
2023-03-29T05:39:49.986Z,50.875576
2023-03-29T05:40:50.003Z,50.875576
2023-03-29T05:41:49.939Z,50.875576
2023-03-29T05:42:49.940Z,50.875576
2023-03-29T05:43:49.929Z,50.875576
2023-03-29T05:44:51.092Z,50.875576
2023-03-29T05:45:49.912Z,50.875576
2023-03-29T05:46:49.896Z,50.875576
2023-03-29T05:47:49.917Z,50.875576
2023-03-29T05:48:49.856Z,50.875576
2023-03-29T05:49:49.878Z,50.875576
2023-03-29T05:50:49.869Z,50.875576
2023-03-29T05:51:49.847Z,50.875576
2023-03-29T05:52:49.815Z,50.875576
2023-03-29T05:53:49.816Z,50.875576
2023-03-29T05:54:49.807Z,50.875576
2023-03-29T05:55:49.799Z,50.875576
2023-03-29T05:56:49.830Z,50.875576
2023-03-29T05:57:49.783Z,50.875576
2023-03-29T05:58:49.765Z,50.875576
2023-03-29T11:46:36.776Z,50.875355
2023-03-29T11:47:36.801Z,50.875374
2023-03-29T11:48:36.761Z,50.875362
2023-03-29T11:49:36.764Z,50.875336
2023-03-29T11:50:36.925Z,50.875401
2023-03-29T11:51:37.726Z,50.875443
2023-03-29T11:52:36.700Z,50.875408
2023-03-29T11:53:36.726Z,50.875381
2023-03-29T11:54:36.698Z,50.875328
2023-03-29T11:55:36.679Z,50.875500
2023-03-29T11:56:36.675Z,50.875790
2023-03-29T11:57:36.667Z,50.875542
2023-03-29T11:58:38.855Z,50.875332
2023-03-29T11:59:37.654Z,50.875362
2023-03-29T12:00:36.627Z,50.875343
2023-03-29T12:01:36.656Z,50.875465
2023-03-29T12:02:36.747Z,50.875450
2023-03-29T12:03:36.643Z,50.875874
2023-03-29T12:04:37.591Z,50.875561
2023-03-29T12:05:36.588Z,50.875919
2023-03-29T12:06:36.565Z,50.875721
2023-03-29T12:07:36.557Z,50.875393
2023-03-29T12:08:36.538Z,50.875488
2023-03-29T12:09:36.539Z,50.875320
2023-03-29T12:10:36.545Z,50.875286
2023-03-29T12:11:36.515Z,50.875610
2023-03-29T12:12:36.513Z,50.875336
2023-03-29T12:13:36.499Z,50.875462
2023-03-29T12:14:36.506Z,50.875381
2023-03-29T12:15:36.505Z,50.875408
2023-03-29T12:16:36.532Z,50.875298
2023-03-29T12:17:36.487Z,50.875523
2023-03-29T12:18:36.469Z,50.875393
2023-03-29T12:19:40.281Z,50.875328
2023-03-29T12:20:38.537Z,50.875397
2023-03-29T12:21:36.444Z,50.875443
2023-03-29T12:22:36.416Z,50.875469
2023-03-29T12:23:36.409Z,50.875401
2023-03-29T12:24:36.411Z,50.875523
2023-03-29T12:25:36.409Z,50.875416
2023-03-29T12:26:36.373Z,50.875309
2023-03-29T12:27:36.355Z,50.875286
2023-03-29T12:28:36.366Z,50.875351
2023-03-29T12:29:36.344Z,50.875301
2023-03-29T12:30:36.337Z,50.875355
2023-03-29T12:31:36.368Z,50.875309
2023-03-29T12:32:36.373Z,50.875328
2023-03-29T12:33:36.294Z,50.875351
2023-03-29T12:34:36.316Z,50.875622
2023-03-29T12:35:36.312Z,50.875477
2023-03-29T12:36:36.273Z,50.875359
2023-03-29T12:37:36.287Z,50.875256
2023-03-29T12:38:36.255Z,50.875416
2023-03-29T17:36:29.040Z,50.875587
2023-03-29T17:37:28.985Z,50.875568
2023-03-29T17:38:28.991Z,50.875515
2023-03-29T17:39:28.967Z,50.875347
2023-03-29T17:40:29.009Z,50.875450
2023-03-29T17:41:30.828Z,50.875408
2023-03-29T17:42:28.983Z,50.875378
2023-03-29T17:43:28.941Z,50.876244
2023-03-29T17:44:28.933Z,50.876110
2023-03-29T17:45:28.937Z,50.875229
2023-03-29T17:46:28.927Z,50.875446
2023-03-29T17:47:28.914Z,50.875282
2023-03-29T17:48:28.910Z,50.875443
2023-03-29T17:49:28.869Z,50.875530
2023-03-29T17:50:28.867Z,50.875435
2023-03-29T17:51:28.836Z,50.875458
2023-03-29T17:52:29.841Z,50.875355
2023-03-29T17:53:28.860Z,50.875488
2023-03-29T17:54:28.815Z,50.875500
2023-03-29T17:55:28.834Z,50.875496
2023-03-29T17:56:28.807Z,50.875336
2023-03-29T17:57:28.873Z,50.875149
2023-03-29T17:58:28.811Z,50.875225
2023-03-29T17:59:28.783Z,50.875237
2023-03-29T18:00:28.758Z,50.875381
2023-03-29T18:01:28.801Z,50.875263
2023-03-29T18:02:28.863Z,50.875359
2023-03-29T18:03:28.825Z,50.875565
2023-03-29T18:04:28.729Z,50.875477
2023-03-29T18:05:28.720Z,50.875610
2023-03-29T18:06:28.725Z,50.875496
2023-03-29T18:07:28.689Z,50.875366
2023-03-29T18:08:28.695Z,50.875282
2023-03-29T18:09:30.772Z,50.875263
2023-03-29T18:10:29.670Z,50.875355
2023-03-29T18:11:28.663Z,50.875408
2023-03-29T18:12:28.640Z,50.875248
2023-03-29T18:13:28.641Z,50.875202
2023-03-29T18:14:28.644Z,50.875237
2023-03-29T18:15:28.650Z,50.875332
2023-03-29T18:16:28.709Z,50.875278
2023-03-29T18:17:28.705Z,50.875378
2023-03-29T18:18:28.603Z,50.875397
2023-03-29T18:19:28.786Z,50.875278
2023-03-29T18:20:29.609Z,50.875263
2023-03-29T18:21:28.560Z,50.875401
2023-03-29T18:22:28.549Z,50.875484
2023-03-29T18:23:28.550Z,50.875576
2023-03-29T18:24:28.540Z,50.875401
2023-03-29T18:25:28.524Z,50.875458
2023-03-29T18:26:28.501Z,50.875610
2023-03-29T18:27:28.527Z,50.875538
2023-03-29T18:28:28.518Z,50.875324
2023-03-29T18:29:28.465Z,50.875370
2023-03-29T18:30:28.498Z,50.875320
2023-03-29T18:31:28.473Z,50.875267
2023-03-29T18:32:28.465Z,50.875336
2023-03-29T18:33:28.468Z,50.875290
2023-03-29T18:34:28.421Z,50.875343
2023-03-29T18:35:29.454Z,50.875378
2023-03-29T18:36:28.406Z,50.875542
2023-03-29T18:37:28.376Z,50.875576
2023-03-29T18:38:28.393Z,50.875549
2023-03-29T18:39:28.387Z,50.875595
2023-03-29T18:40:28.387Z,50.875492
2023-03-29T18:41:28.379Z,50.875359
2023-03-29T18:42:28.341Z,50.875477
2023-03-29T18:43:28.342Z,50.875240
2023-03-29T18:44:28.328Z,50.875511
2023-03-29T18:45:28.305Z,50.875221
2023-03-29T18:46:28.313Z,50.875225
2023-03-29T18:47:28.343Z,50.875225
2023-03-29T18:48:28.295Z,50.875458
2023-03-29T18:49:28.280Z,50.875370
2023-03-29T18:50:28.267Z,50.875343
2023-03-29T18:51:28.338Z,50.875385
2023-03-29T18:52:28.272Z,50.875416
2023-03-29T18:53:28.248Z,50.875416
2023-03-29T18:54:28.229Z,50.875439
2023-03-29T18:55:28.203Z,50.875473
2023-03-29T18:56:28.231Z,50.875011
2023-03-29T18:57:28.285Z,50.875076
2023-03-29T18:58:28.197Z,50.875103
2023-03-29T18:59:28.198Z,50.875252
2023-03-29T19:00:28.180Z,50.875374
2023-03-29T19:01:28.192Z,50.875454
2023-03-29T19:02:28.272Z,50.875298
2023-03-29T19:03:28.275Z,50.875175
2023-03-29T19:04:28.136Z,50.875786
2023-03-29T19:05:28.137Z,50.875370
2023-03-29T19:06:28.123Z,50.875412
2023-03-29T19:07:28.119Z,50.875336
2023-03-29T19:08:28.101Z,50.875454
2023-03-29T19:09:28.104Z,50.875359
2023-03-29T19:10:28.101Z,50.875206
2023-03-29T19:11:29.134Z,50.875164
2023-03-29T19:12:28.036Z,50.875092
2023-03-29T19:13:28.044Z,50.875340
2023-03-29T19:14:28.113Z,50.875435
2023-03-29T19:15:28.036Z,50.875477
2023-03-29T19:16:28.078Z,50.875553
2023-03-29T19:17:28.137Z,50.875618
2023-03-29T19:18:27.989Z,50.875526
2023-03-29T19:19:28.433Z,50.875504
2023-03-29T19:20:27.963Z,50.875473
2023-03-29T19:21:28.006Z,50.875477
2023-03-29T19:22:27.976Z,50.875561
2023-03-29T19:23:27.967Z,50.875584
2023-03-29T19:24:27.950Z,50.875473
2023-03-29T19:25:27.939Z,50.875477
2023-03-29T19:26:27.922Z,50.875622
2023-03-29T19:27:27.924Z,50.875298
2023-03-29T19:28:27.921Z,50.875420
2023-03-29T19:29:27.895Z,50.875351
2023-03-29T19:30:27.933Z,50.875366
2023-03-29T19:31:27.908Z,50.875439
2023-03-29T19:32:27.860Z,50.875359
2023-03-29T19:33:27.871Z,50.875385
2023-03-29T19:34:27.856Z,50.875580
2023-03-29T19:35:27.885Z,50.875668
2023-03-29T19:36:27.825Z,50.875671
2023-03-29T19:37:27.804Z,50.875607
2023-03-29T19:38:27.798Z,50.875462
2023-03-29T19:39:27.799Z,50.875340
2023-03-29T19:40:27.764Z,50.875324
2023-03-29T19:41:27.769Z,50.875278
2023-03-29T19:42:27.734Z,50.875313
2023-03-29T19:43:28.760Z,50.875317
2023-03-29T19:44:27.744Z,50.875317
2023-03-29T19:45:27.701Z,50.875431
2023-03-29T19:46:27.808Z,50.875469
2023-03-29T19:47:27.716Z,50.875530
2023-03-29T19:48:27.702Z,50.875530
2023-03-29T19:49:27.696Z,50.875374
2023-03-29T19:50:27.650Z,50.875374
2023-03-29T19:51:27.677Z,50.875366
2023-03-29T19:52:27.633Z,50.875381
2023-03-29T19:53:27.624Z,50.875416
2023-03-29T19:54:27.673Z,50.875492
2023-03-29T19:55:27.621Z,50.875622
2023-03-29T19:56:27.596Z,50.875488
2023-03-29T19:57:27.630Z,50.875282
2023-03-29T19:58:27.593Z,50.875458
2023-03-29T19:59:27.574Z,50.875477
2023-03-29T20:00:27.585Z,50.875450
2023-03-29T20:01:27.586Z,50.875454
2023-03-29T20:02:27.579Z,50.875439
2023-03-29T20:03:27.525Z,50.875393
2023-03-29T20:04:27.564Z,50.875473
2023-03-29T20:05:27.559Z,50.875565
2023-03-29T20:06:27.508Z,50.875397
2023-03-29T20:07:27.480Z,50.875332
2023-03-29T20:08:27.487Z,50.875462
2023-03-29T20:09:27.502Z,50.875374
2023-03-29T20:10:27.464Z,50.875366
2023-03-29T20:11:27.445Z,50.875362
2023-03-29T20:12:27.457Z,50.875340
2023-03-29T20:13:37.574Z,50.875381
2023-03-29T20:14:29.422Z,50.875393
2023-03-29T20:15:27.398Z,50.875320
2023-03-29T20:16:27.459Z,50.875282
2023-03-29T20:17:27.427Z,50.875309
2023-03-29T20:18:27.381Z,50.875347
2023-03-29T20:19:27.382Z,50.875370
2023-03-29T20:20:27.434Z,50.875336
2023-03-29T20:21:27.348Z,50.875378
2023-03-29T20:22:27.341Z,50.875492
2023-03-29T20:23:27.320Z,50.875381
2023-03-29T20:24:27.336Z,50.875389
2023-03-29T20:25:27.303Z,50.875309
2023-03-29T20:26:27.328Z,50.875298
2023-03-29T20:27:27.273Z,50.875404
2023-03-29T20:28:27.281Z,50.875320
2023-03-29T20:29:27.293Z,50.875404
2023-03-29T20:30:27.252Z,50.875416
2023-03-29T20:31:27.278Z,50.875389
2023-03-29T20:32:27.277Z,50.875340
2023-03-29T20:33:27.216Z,50.875320
2023-03-29T20:34:27.226Z,50.875381
2023-03-29T20:35:27.331Z,50.875416
2023-03-29T20:36:27.235Z,50.875370
2023-03-29T20:37:27.164Z,50.875359
2023-03-29T20:38:27.164Z,50.875290
2023-03-29T20:39:27.183Z,50.875324
2023-03-29T20:40:27.156Z,50.875546
2023-03-29T20:41:27.164Z,50.875416
2023-03-29T20:42:27.125Z,50.875362
2023-03-29T20:43:27.118Z,50.875317
2023-03-29T20:44:28.455Z,50.875370
2023-03-29T20:45:27.131Z,50.875221
2023-03-29T20:46:27.119Z,50.875286
2023-03-29T20:47:27.122Z,50.875534
2023-03-29T20:48:27.063Z,50.875240
2023-03-29T20:49:27.098Z,50.875546
2023-03-29T20:50:27.077Z,50.875404
2023-03-29T20:51:27.059Z,50.875408
2023-03-29T20:52:27.038Z,50.875362
2023-03-29T20:53:27.024Z,50.875301
2023-03-29T20:54:27.034Z,50.875351
2023-03-29T20:55:26.994Z,50.875336
2023-03-29T20:56:26.968Z,50.875465
2023-03-29T20:57:29.198Z,50.875427
2023-03-29T20:58:26.971Z,50.875404
2023-03-29T20:59:26.967Z,50.875454
2023-03-29T21:00:26.966Z,50.875332
2023-03-29T21:01:26.986Z,50.875385
2023-03-29T21:02:27.083Z,50.875225
2023-03-29T21:03:27.070Z,50.875389
2023-03-29T21:04:26.954Z,50.875423
2023-03-29T21:05:26.920Z,50.875362
2023-03-29T21:06:26.885Z,50.875462
2023-03-29T21:07:26.942Z,50.875515
2023-03-29T21:08:26.883Z,50.875465
2023-03-29T21:09:26.886Z,50.875412
2023-03-29T21:10:26.888Z,50.875412
2023-03-29T21:11:26.840Z,50.875393
2023-03-29T21:12:26.844Z,50.875427
2023-03-29T21:13:26.815Z,50.875397
2023-03-29T21:14:26.860Z,50.875229
2023-03-29T21:15:26.788Z,50.875290
2023-03-29T21:16:26.803Z,50.875374
2023-03-29T21:17:26.801Z,50.875416
2023-03-29T21:18:26.791Z,50.875389
2023-03-29T21:19:26.815Z,50.875332
2023-03-29T21:20:26.788Z,50.875393
2023-03-29T21:21:26.760Z,50.875393
2023-03-29T21:22:26.753Z,50.875397
2023-03-29T21:23:26.738Z,50.875278
2023-03-29T21:24:26.718Z,50.875420
2023-03-29T21:25:26.727Z,50.875366
2023-03-29T21:26:26.705Z,50.875340
2023-03-29T21:27:26.688Z,50.875439
2023-03-29T21:28:26.700Z,50.875427
2023-03-29T21:29:26.655Z,50.875359
2023-03-29T21:30:26.669Z,50.875343
2023-03-29T21:31:26.668Z,50.875458
2023-03-29T21:32:26.679Z,50.875351
2023-03-29T21:33:26.622Z,50.875320
2023-03-29T21:34:26.602Z,50.875343
2023-03-29T21:35:26.621Z,50.875366
2023-03-29T21:36:26.570Z,50.875282
2023-03-29T21:37:26.576Z,50.875381
2023-03-29T21:38:26.597Z,50.875267
2023-03-29T21:39:26.578Z,50.875416
2023-03-29T21:40:26.568Z,50.875362
2023-03-29T21:41:27.541Z,50.875271
2023-03-29T21:42:26.532Z,50.875278
2023-03-29T21:43:26.519Z,50.875359
2023-03-29T21:44:26.516Z,50.875359
2023-03-29T21:45:26.517Z,50.875416
2023-03-29T21:46:26.523Z,50.875385
2023-03-29T21:47:26.484Z,50.875385
2023-03-29T21:48:26.459Z,50.875408
2023-03-29T21:49:26.502Z,50.875404
2023-03-29T21:50:26.478Z,50.875427
2023-03-29T21:51:26.426Z,50.875412
2023-03-29T21:52:26.424Z,50.875416
2023-03-29T21:53:26.414Z,50.875446
2023-03-29T21:54:26.414Z,50.875378
2023-03-29T21:55:26.431Z,50.875362
2023-03-29T21:56:26.401Z,50.875336
2023-03-29T21:57:26.425Z,50.875294
2023-03-29T21:58:26.386Z,50.875256
2023-03-29T21:59:26.348Z,50.875286
2023-03-29T22:00:26.352Z,50.875233
2023-03-29T22:01:26.372Z,50.874977
2023-03-29T22:02:26.350Z,50.875267
2023-03-29T22:03:26.310Z,50.875427
2023-03-29T22:04:36.658Z,50.875240
2023-03-29T22:05:28.334Z,50.875343
2023-03-29T22:06:26.309Z,50.875225
2023-03-29T22:07:26.314Z,50.875275
2023-03-29T22:08:26.344Z,50.875332
2023-03-29T22:09:26.270Z,50.875328
2023-03-29T22:10:26.297Z,50.875256
2023-03-29T22:11:26.246Z,50.875076
2023-03-29T22:12:27.245Z,50.875202
2023-03-29T22:13:26.224Z,50.875259
2023-03-29T22:14:26.234Z,50.875385
2023-03-29T22:15:26.348Z,50.875298
2023-03-29T22:16:26.290Z,50.875248
2023-03-29T22:17:26.205Z,50.875278
2023-03-29T22:18:26.187Z,50.875519
2023-03-29T22:19:26.200Z,50.875351
2023-03-29T22:20:26.166Z,50.875340
2023-03-29T22:21:26.160Z,50.875389
2023-03-29T22:22:26.145Z,50.875237
2023-03-29T22:23:26.150Z,50.875210
2023-03-29T22:24:26.136Z,50.875374
2023-03-29T22:25:26.128Z,50.875469
2023-03-29T22:26:26.091Z,50.875221
2023-03-29T22:27:26.079Z,50.875217
2023-03-29T22:28:26.074Z,50.875191
2023-03-29T22:29:26.095Z,50.875427
2023-03-29T22:30:26.096Z,50.875587
2023-03-29T22:31:26.066Z,50.875336
2023-03-29T22:32:26.014Z,50.875381
2023-03-29T22:33:26.028Z,50.875381
2023-03-29T22:34:26.062Z,50.875214
2023-03-29T22:35:26.044Z,50.875355
2023-03-29T22:36:25.962Z,50.875443
2023-03-29T22:37:25.988Z,50.875458
2023-03-29T22:38:25.981Z,50.875519
2023-03-29T22:39:25.969Z,50.875481
2023-03-29T22:40:25.980Z,50.875198
2023-03-29T22:41:25.978Z,50.875557
2023-03-29T22:42:25.953Z,50.875393
2023-03-29T22:43:25.922Z,50.875462
2023-03-29T22:44:25.923Z,50.875839
2023-03-29T22:45:25.922Z,50.875416
2023-03-29T22:46:25.889Z,50.875538
2023-03-29T22:47:25.891Z,50.875690
2023-03-29T22:48:25.915Z,50.875854
2023-03-29T22:49:25.864Z,50.875870
2023-03-29T22:50:25.856Z,50.875824
2023-03-29T22:51:25.852Z,50.875515
2023-03-29T22:52:25.811Z,50.875404
2023-03-29T22:53:25.808Z,50.875347
2023-03-29T22:54:25.818Z,50.875309
2023-03-29T22:55:25.802Z,50.875294
2023-03-29T22:56:25.797Z,50.875313
2023-03-29T22:57:25.829Z,50.875317
2023-03-29T22:58:25.805Z,50.875294
2023-03-29T22:59:25.784Z,50.875263
2023-03-29T23:00:25.762Z,50.875214
2023-03-29T23:01:25.788Z,50.875214
